sensor_id;sensor_type;location;lat;lon;timestamp;temperature;humidity
10296;DHT22;5193;51.032;6.356;2024-02-28T00:00:28;0.30;99.90
10296;DHT22;5193;51.032;6.356;2024-02-28T00:02:56;0.20;99.90
10296;DHT22;5193;51.032;6.356;2024-02-28T00:05:22;0.20;99.90
10296;DHT22;5193;51.032;6.356;2024-02-28T00:07:47;0.20;99.90
10296;DHT22;5193;51.032;6.356;2024-02-28T00:10:13;0.10;99.90
10296;DHT22;5193;51.032;6.356;2024-02-28T00:12:39;0.10;99.90
10296;DHT22;5193;51.032;6.356;2024-02-28T00:15:08;0.10;99.90
10296;DHT22;5193;51.032;6.356;2024-02-28T00:17:39;0.10;99.90
10296;DHT22;5193;51.032;6.356;2024-02-28T00:20:07;0.10;99.90
10296;DHT22;5193;51.032;6.356;2024-02-28T00:22:32;0.10;99.90
10296;DHT22;5193;51.032;6.356;2024-02-28T00:24:58;0.10;99.90
10296;DHT22;5193;51.032;6.356;2024-02-28T00:27:29;0.10;99.90
10296;DHT22;5193;51.032;6.356;2024-02-28T00:29:54;0.00;99.90
10296;DHT22;5193;51.032;6.356;2024-02-28T00:32:21;0.10;99.90
10296;DHT22;5193;51.032;6.356;2024-02-28T00:34:47;0.00;99.90
10296;DHT22;5193;51.032;6.356;2024-02-28T00:37:13;0.00;99.90
10296;DHT22;5193;51.032;6.356;2024-02-28T00:39:39;-0.10;99.90
10296;DHT22;5193;51.032;6.356;2024-02-28T00:42:05;-0.10;99.90
10296;DHT22;5193;51.032;6.356;2024-02-28T00:44:32;-0.10;99.90
10296;DHT22;5193;51.032;6.356;2024-02-28T00:46:57;-0.10;99.90
10296;DHT22;5193;51.032;6.356;2024-02-28T00:49:23;-0.10;99.90
10296;DHT22;5193;51.032;6.356;2024-02-28T00:51:49;-0.10;99.90
10296;DHT22;5193;51.032;6.356;2024-02-28T00:54:14;-0.20;99.90
10296;DHT22;5193;51.032;6.356;2024-02-28T00:56:40;-0.20;99.90
10296;DHT22;5193;51.032;6.356;2024-02-28T00:59:05;-0.20;99.90
10296;DHT22;5193;51.032;6.356;2024-02-28T01:01:32;-0.20;99.90
10296;DHT22;5193;51.032;6.356;2024-02-28T01:03:57;-0.20;99.90
10296;DHT22;5193;51.032;6.356;2024-02-28T01:06:23;-0.10;99.90
10296;DHT22;5193;51.032;6.356;2024-02-28T01:08:48;-0.10;99.90
10296;DHT22;5193;51.032;6.356;2024-02-28T01:11:17;-0.10;99.90
10296;DHT22;5193;51.032;6.356;2024-02-28T01:13:42;-0.10;99.90
10296;DHT22;5193;51.032;6.356;2024-02-28T01:16:08;-0.10;99.90
10296;DHT22;5193;51.032;6.356;2024-02-28T01:18:33;-0.10;99.90
10296;DHT22;5193;51.032;6.356;2024-02-28T01:20:59;0.00;99.90
10296;DHT22;5193;51.032;6.356;2024-02-28T01:23:25;-0.10;99.90
10296;DHT22;5193;51.032;6.356;2024-02-28T01:25:53;-0.10;99.90
10296;DHT22;5193;51.032;6.356;2024-02-28T01:28:19;-0.10;99.90
10296;DHT22;5193;51.032;6.356;2024-02-28T01:30:44;-0.20;99.90
10296;DHT22;5193;51.032;6.356;2024-02-28T01:33:10;-0.20;99.90
10296;DHT22;5193;51.032;6.356;2024-02-28T01:35:38;-0.20;99.90
10296;DHT22;5193;51.032;6.356;2024-02-28T01:38:03;-0.30;99.90
10296;DHT22;5193;51.032;6.356;2024-02-28T01:40:29;-0.20;99.90
10296;DHT22;5193;51.032;6.356;2024-02-28T01:42:55;-0.20;99.90
10296;DHT22;5193;51.032;6.356;2024-02-28T01:45:27;-0.20;99.90
10296;DHT22;5193;51.032;6.356;2024-02-28T01:47:52;-0.20;99.90
10296;DHT22;5193;51.032;6.356;2024-02-28T01:50:19;-0.30;99.90
10296;DHT22;5193;51.032;6.356;2024-02-28T01:52:52;-0.30;99.90
10296;DHT22;5193;51.032;6.356;2024-02-28T01:55:17;-0.30;99.90
10296;DHT22;5193;51.032;6.356;2024-02-28T01:57:43;-0.40;99.90
10296;DHT22;5193;51.032;6.356;2024-02-28T02:00:11;-0.40;99.90
10296;DHT22;5193;51.032;6.356;2024-02-28T02:02:43;-0.30;99.90
10296;DHT22;5193;51.032;6.356;2024-02-28T02:05:09;-0.30;99.90
10296;DHT22;5193;51.032;6.356;2024-02-28T02:07:34;-0.30;99.90
10296;DHT22;5193;51.032;6.356;2024-02-28T02:10:01;-0.20;99.90
10296;DHT22;5193;51.032;6.356;2024-02-28T02:12:26;-0.20;99.90
10296;DHT22;5193;51.032;6.356;2024-02-28T02:14:52;-0.10;99.90
10296;DHT22;5193;51.032;6.356;2024-02-28T02:17:18;0.00;99.90
10296;DHT22;5193;51.032;6.356;2024-02-28T02:19:44;0.00;99.90
10296;DHT22;5193;51.032;6.356;2024-02-28T02:22:20;0.10;99.90
10296;DHT22;5193;51.032;6.356;2024-02-28T02:24:47;0.20;99.90
10296;DHT22;5193;51.032;6.356;2024-02-28T02:27:12;0.30;99.90
10296;DHT22;5193;51.032;6.356;2024-02-28T02:29:38;0.40;99.90
10296;DHT22;5193;51.032;6.356;2024-02-28T02:32:04;0.40;99.90
10296;DHT22;5193;51.032;6.356;2024-02-28T02:34:32;0.50;99.90
10296;DHT22;5193;51.032;6.356;2024-02-28T02:36:58;0.50;99.90
10296;DHT22;5193;51.032;6.356;2024-02-28T02:39:23;0.50;99.90
10296;DHT22;5193;51.032;6.356;2024-02-28T02:41:49;0.60;99.90
10296;DHT22;5193;51.032;6.356;2024-02-28T02:44:15;0.60;99.90
10296;DHT22;5193;51.032;6.356;2024-02-28T02:46:41;0.60;99.90
10296;DHT22;5193;51.032;6.356;2024-02-28T02:49:09;0.70;99.90
10296;DHT22;5193;51.032;6.356;2024-02-28T02:51:38;0.70;99.90
10296;DHT22;5193;51.032;6.356;2024-02-28T02:54:03;0.70;99.90
10296;DHT22;5193;51.032;6.356;2024-02-28T02:56:29;0.70;99.90
10296;DHT22;5193;51.032;6.356;2024-02-28T02:58:56;0.80;99.90
10296;DHT22;5193;51.032;6.356;2024-02-28T03:01:22;0.80;99.90
10296;DHT22;5193;51.032;6.356;2024-02-28T03:03:48;0.80;99.90
10296;DHT22;5193;51.032;6.356;2024-02-28T03:06:14;0.90;99.90
10296;DHT22;5193;51.032;6.356;2024-02-28T03:08:40;0.90;99.90
10296;DHT22;5193;51.032;6.356;2024-02-28T03:11:05;1.00;99.90
10296;DHT22;5193;51.032;6.356;2024-02-28T03:13:33;1.00;99.90
10296;DHT22;5193;51.032;6.356;2024-02-28T03:16:03;1.00;99.90
10296;DHT22;5193;51.032;6.356;2024-02-28T03:18:29;1.10;99.90
10296;DHT22;5193;51.032;6.356;2024-02-28T03:20:54;1.10;99.90
10296;DHT22;5193;51.032;6.356;2024-02-28T03:23:20;1.20;99.90
10296;DHT22;5193;51.032;6.356;2024-02-28T03:25:46;1.30;99.90
10296;DHT22;5193;51.032;6.356;2024-02-28T03:28:11;1.30;99.90
10296;DHT22;5193;51.032;6.356;2024-02-28T03:30:39;1.40;99.90
10296;DHT22;5193;51.032;6.356;2024-02-28T03:33:11;1.40;99.90
10296;DHT22;5193;51.032;6.356;2024-02-28T03:35:37;1.50;99.90
10296;DHT22;5193;51.032;6.356;2024-02-28T03:38:02;1.50;99.90
10296;DHT22;5193;51.032;6.356;2024-02-28T03:40:28;1.50;99.90
10296;DHT22;5193;51.032;6.356;2024-02-28T03:42:53;1.60;99.90
10296;DHT22;5193;51.032;6.356;2024-02-28T03:45:23;1.60;99.90
10296;DHT22;5193;51.032;6.356;2024-02-28T03:47:48;1.70;99.90
10296;DHT22;5193;51.032;6.356;2024-02-28T03:50:14;1.70;99.90
10296;DHT22;5193;51.032;6.356;2024-02-28T03:52:39;1.80;99.90
10296;DHT22;5193;51.032;6.356;2024-02-28T03:55:05;1.80;99.90
10296;DHT22;5193;51.032;6.356;2024-02-28T03:57:31;1.90;99.90
10296;DHT22;5193;51.032;6.356;2024-02-28T04:00:01;1.90;99.90
10296;DHT22;5193;51.032;6.356;2024-02-28T04:02:33;1.90;99.90
10296;DHT22;5193;51.032;6.356;2024-02-28T04:04:59;2.00;99.90
10296;DHT22;5193;51.032;6.356;2024-02-28T04:07:26;2.10;99.90
10296;DHT22;5193;51.032;6.356;2024-02-28T04:09:52;2.10;99.90
10296;DHT22;5193;51.032;6.356;2024-02-28T04:12:24;2.10;99.90
10296;DHT22;5193;51.032;6.356;2024-02-28T04:14:50;2.20;99.90
10296;DHT22;5193;51.032;6.356;2024-02-28T04:17:15;2.20;99.90
10296;DHT22;5193;51.032;6.356;2024-02-28T04:19:41;2.20;99.90
10296;DHT22;5193;51.032;6.356;2024-02-28T04:22:07;2.20;99.90
10296;DHT22;5193;51.032;6.356;2024-02-28T04:24:32;2.20;99.90
10296;DHT22;5193;51.032;6.356;2024-02-28T04:26:58;2.30;99.90
10296;DHT22;5193;51.032;6.356;2024-02-28T04:29:25;2.30;99.90
10296;DHT22;5193;51.032;6.356;2024-02-28T04:31:52;2.30;99.90
10296;DHT22;5193;51.032;6.356;2024-02-28T04:34:17;2.40;99.90
10296;DHT22;5193;51.032;6.356;2024-02-28T04:36:45;2.40;99.90
10296;DHT22;5193;51.032;6.356;2024-02-28T04:39:11;2.40;99.90
10296;DHT22;5193;51.032;6.356;2024-02-28T04:41:42;2.50;99.90
10296;DHT22;5193;51.032;6.356;2024-02-28T04:44:08;2.50;99.90
10296;DHT22;5193;51.032;6.356;2024-02-28T04:46:34;2.50;99.90
10296;DHT22;5193;51.032;6.356;2024-02-28T04:49:02;2.50;99.90
10296;DHT22;5193;51.032;6.356;2024-02-28T04:51:27;2.50;99.90
10296;DHT22;5193;51.032;6.356;2024-02-28T04:53:53;2.50;99.90
10296;DHT22;5193;51.032;6.356;2024-02-28T04:56:18;2.50;99.90
10296;DHT22;5193;51.032;6.356;2024-02-28T04:58:47;2.50;99.90
10296;DHT22;5193;51.032;6.356;2024-02-28T05:01:13;2.50;99.90
10296;DHT22;5193;51.032;6.356;2024-02-28T05:03:38;2.50;99.90
10296;DHT22;5193;51.032;6.356;2024-02-28T05:06:04;2.50;99.90
10296;DHT22;5193;51.032;6.356;2024-02-28T05:08:30;2.50;99.90
10296;DHT22;5193;51.032;6.356;2024-02-28T05:10:55;2.50;99.90
10296;DHT22;5193;51.032;6.356;2024-02-28T05:13:21;2.50;99.90
10296;DHT22;5193;51.032;6.356;2024-02-28T05:15:48;2.50;99.90
10296;DHT22;5193;51.032;6.356;2024-02-28T05:18:14;2.50;99.90
10296;DHT22;5193;51.032;6.356;2024-02-28T05:20:39;2.40;99.90
10296;DHT22;5193;51.032;6.356;2024-02-28T05:23:05;2.40;99.90
10296;DHT22;5193;51.032;6.356;2024-02-28T05:25:30;2.40;99.90
10296;DHT22;5193;51.032;6.356;2024-02-28T05:27:56;2.40;99.90
10296;DHT22;5193;51.032;6.356;2024-02-28T05:30:22;2.40;99.90
10296;DHT22;5193;51.032;6.356;2024-02-28T05:32:47;2.40;99.90
10296;DHT22;5193;51.032;6.356;2024-02-28T05:35:13;2.40;99.90
10296;DHT22;5193;51.032;6.356;2024-02-28T05:37:39;2.40;99.90
10296;DHT22;5193;51.032;6.356;2024-02-28T05:40:07;2.40;99.90
10296;DHT22;5193;51.032;6.356;2024-02-28T05:42:33;2.50;99.90
10296;DHT22;5193;51.032;6.356;2024-02-28T05:44:58;2.40;99.90
10296;DHT22;5193;51.032;6.356;2024-02-28T05:47:24;2.50;99.90
10296;DHT22;5193;51.032;6.356;2024-02-28T05:49:50;2.50;99.90
10296;DHT22;5193;51.032;6.356;2024-02-28T05:52:17;2.50;99.90
10296;DHT22;5193;51.032;6.356;2024-02-28T05:54:42;2.60;99.90
10296;DHT22;5193;51.032;6.356;2024-02-28T05:57:08;2.60;99.90
10296;DHT22;5193;51.032;6.356;2024-02-28T05:59:33;2.60;99.90
10296;DHT22;5193;51.032;6.356;2024-02-28T06:01:59;2.60;99.90
10296;DHT22;5193;51.032;6.356;2024-02-28T06:04:25;2.60;99.90
10296;DHT22;5193;51.032;6.356;2024-02-28T06:06:50;2.60;99.90
10296;DHT22;5193;51.032;6.356;2024-02-28T06:09:16;2.60;99.90
10296;DHT22;5193;51.032;6.356;2024-02-28T06:11:42;2.60;99.90
10296;DHT22;5193;51.032;6.356;2024-02-28T06:14:07;2.50;99.90
10296;DHT22;5193;51.032;6.356;2024-02-28T06:16:34;2.50;99.90
10296;DHT22;5193;51.032;6.356;2024-02-28T06:19:00;2.50;99.90
10296;DHT22;5193;51.032;6.356;2024-02-28T06:21:26;2.40;99.90
10296;DHT22;5193;51.032;6.356;2024-02-28T06:23:51;2.40;99.90
10296;DHT22;5193;51.032;6.356;2024-02-28T06:26:17;2.40;99.90
10296;DHT22;5193;51.032;6.356;2024-02-28T06:28:46;2.40;99.90
10296;DHT22;5193;51.032;6.356;2024-02-28T06:31:14;2.40;99.90
10296;DHT22;5193;51.032;6.356;2024-02-28T06:33:39;2.40;99.90
10296;DHT22;5193;51.032;6.356;2024-02-28T06:36:05;2.40;99.90
10296;DHT22;5193;51.032;6.356;2024-02-28T06:38:31;2.40;99.90
10296;DHT22;5193;51.032;6.356;2024-02-28T06:40:57;2.40;99.90
10296;DHT22;5193;51.032;6.356;2024-02-28T06:43:22;2.40;99.90
10296;DHT22;5193;51.032;6.356;2024-02-28T06:45:48;2.40;99.90
10296;DHT22;5193;51.032;6.356;2024-02-28T06:48:14;2.50;99.90
10296;DHT22;5193;51.032;6.356;2024-02-28T06:50:39;2.50;99.90
10296;DHT22;5193;51.032;6.356;2024-02-28T06:53:05;2.50;99.90
10296;DHT22;5193;51.032;6.356;2024-02-28T06:55:31;2.50;99.90
10296;DHT22;5193;51.032;6.356;2024-02-28T06:57:57;2.50;99.90
10296;DHT22;5193;51.032;6.356;2024-02-28T07:00:22;2.50;99.90
10296;DHT22;5193;51.032;6.356;2024-02-28T07:02:48;2.60;99.90
10296;DHT22;5193;51.032;6.356;2024-02-28T07:05:14;2.60;99.90
10296;DHT22;5193;51.032;6.356;2024-02-28T07:07:40;2.60;99.90
10296;DHT22;5193;51.032;6.356;2024-02-28T07:10:07;2.60;99.90
10296;DHT22;5193;51.032;6.356;2024-02-28T07:12:33;2.60;99.90
10296;DHT22;5193;51.032;6.356;2024-02-28T07:14:59;2.70;99.90
10296;DHT22;5193;51.032;6.356;2024-02-28T07:17:24;2.70;99.90
10296;DHT22;5193;51.032;6.356;2024-02-28T07:19:50;2.70;99.90
10296;DHT22;5193;51.032;6.356;2024-02-28T07:22:17;2.70;99.90
10296;DHT22;5193;51.032;6.356;2024-02-28T07:24:42;2.70;99.90
10296;DHT22;5193;51.032;6.356;2024-02-28T07:27:11;2.80;99.90
10296;DHT22;5193;51.032;6.356;2024-02-28T07:29:37;2.80;99.90
10296;DHT22;5193;51.032;6.356;2024-02-28T07:32:03;2.80;99.90
10296;DHT22;5193;51.032;6.356;2024-02-28T07:34:31;3.00;99.90
10296;DHT22;5193;51.032;6.356;2024-02-28T07:36:57;2.90;99.90
10296;DHT22;5193;51.032;6.356;2024-02-28T07:39:23;2.90;99.90
10296;DHT22;5193;51.032;6.356;2024-02-28T07:41:49;2.90;99.90
10296;DHT22;5193;51.032;6.356;2024-02-28T07:44:16;3.00;99.90
10296;DHT22;5193;51.032;6.356;2024-02-28T07:46:42;3.10;99.90
10296;DHT22;5193;51.032;6.356;2024-02-28T07:49:10;3.10;99.90
10296;DHT22;5193;51.032;6.356;2024-02-28T07:51:36;3.10;99.90
10296;DHT22;5193;51.032;6.356;2024-02-28T07:54:02;3.10;99.90
10296;DHT22;5193;51.032;6.356;2024-02-28T07:56:29;3.20;99.90
10296;DHT22;5193;51.032;6.356;2024-02-28T07:58:54;3.20;99.90
10296;DHT22;5193;51.032;6.356;2024-02-28T08:01:20;3.20;99.90
10296;DHT22;5193;51.032;6.356;2024-02-28T08:03:50;3.20;99.90
10296;DHT22;5193;51.032;6.356;2024-02-28T08:06:16;3.20;99.90
10296;DHT22;5193;51.032;6.356;2024-02-28T08:08:44;3.30;99.90
10296;DHT22;5193;51.032;6.356;2024-02-28T08:11:11;3.30;99.90
10296;DHT22;5193;51.032;6.356;2024-02-28T08:13:38;3.30;99.90
10296;DHT22;5193;51.032;6.356;2024-02-28T08:16:03;3.40;99.90
10296;DHT22;5193;51.032;6.356;2024-02-28T08:18:29;3.40;99.90
10296;DHT22;5193;51.032;6.356;2024-02-28T08:20:56;3.50;99.90
10296;DHT22;5193;51.032;6.356;2024-02-28T08:23:24;3.50;99.90
10296;DHT22;5193;51.032;6.356;2024-02-28T08:25:51;3.60;99.90
10296;DHT22;5193;51.032;6.356;2024-02-28T08:28:17;3.60;99.90
10296;DHT22;5193;51.032;6.356;2024-02-28T08:30:43;3.70;99.90
10296;DHT22;5193;51.032;6.356;2024-02-28T08:33:11;3.70;99.90
10296;DHT22;5193;51.032;6.356;2024-02-28T08:35:37;3.80;99.90
10296;DHT22;5193;51.032;6.356;2024-02-28T08:38:03;3.80;99.90
10296;DHT22;5193;51.032;6.356;2024-02-28T08:40:29;3.80;99.90
10296;DHT22;5193;51.032;6.356;2024-02-28T08:42:55;4.00;99.90
10296;DHT22;5193;51.032;6.356;2024-02-28T08:45:22;4.00;99.90
10296;DHT22;5193;51.032;6.356;2024-02-28T08:47:48;4.10;99.90
10296;DHT22;5193;51.032;6.356;2024-02-28T08:50:14;4.20;99.90
10296;DHT22;5193;51.032;6.356;2024-02-28T08:52:39;4.20;99.90
10296;DHT22;5193;51.032;6.356;2024-02-28T08:55:05;4.30;99.90
10296;DHT22;5193;51.032;6.356;2024-02-28T08:57:31;4.40;99.90
10296;DHT22;5193;51.032;6.356;2024-02-28T08:59:59;4.40;99.90
10296;DHT22;5193;51.032;6.356;2024-02-28T09:02:25;4.50;99.90
10296;DHT22;5193;51.032;6.356;2024-02-28T09:04:51;4.60;99.90
10296;DHT22;5193;51.032;6.356;2024-02-28T09:07:18;4.70;99.90
10296;DHT22;5193;51.032;6.356;2024-02-28T09:09:47;4.70;99.90
10296;DHT22;5193;51.032;6.356;2024-02-28T09:12:13;4.90;99.90
10296;DHT22;5193;51.032;6.356;2024-02-28T09:14:41;5.00;99.90
10296;DHT22;5193;51.032;6.356;2024-02-28T09:17:07;5.20;99.90
10296;DHT22;5193;51.032;6.356;2024-02-28T09:19:33;5.40;99.90
10296;DHT22;5193;51.032;6.356;2024-02-28T09:21:59;5.40;99.90
10296;DHT22;5193;51.032;6.356;2024-02-28T09:24:26;5.50;99.90
10296;DHT22;5193;51.032;6.356;2024-02-28T09:26:51;5.60;99.90
10296;DHT22;5193;51.032;6.356;2024-02-28T09:29:20;5.70;99.90
10296;DHT22;5193;51.032;6.356;2024-02-28T09:31:45;5.80;99.90
10296;DHT22;5193;51.032;6.356;2024-02-28T09:34:11;5.90;99.90
10296;DHT22;5193;51.032;6.356;2024-02-28T09:36:41;5.90;99.90
10296;DHT22;5193;51.032;6.356;2024-02-28T09:39:08;6.10;99.90
10296;DHT22;5193;51.032;6.356;2024-02-28T09:41:34;6.20;99.90
10296;DHT22;5193;51.032;6.356;2024-02-28T09:44:00;6.20;99.90
10296;DHT22;5193;51.032;6.356;2024-02-28T09:47:07;6.30;99.90
10296;DHT22;5193;51.032;6.356;2024-02-28T09:49:34;6.40;99.90
10296;DHT22;5193;51.032;6.356;2024-02-28T09:52:11;6.50;99.90
10296;DHT22;5193;51.032;6.356;2024-02-28T09:54:36;6.60;99.90
10296;DHT22;5193;51.032;6.356;2024-02-28T09:57:03;8.00;99.90
10296;DHT22;5193;51.032;6.356;2024-02-28T09:59:30;6.90;99.90
10296;DHT22;5193;51.032;6.356;2024-02-28T10:01:57;7.00;99.90
10296;DHT22;5193;51.032;6.356;2024-02-28T10:04:26;8.40;99.90
10296;DHT22;5193;51.032;6.356;2024-02-28T10:06:59;7.20;99.90
10296;DHT22;5193;51.032;6.356;2024-02-28T10:09:35;7.30;99.90
10296;DHT22;5193;51.032;6.356;2024-02-28T10:12:02;7.30;99.90
10296;DHT22;5193;51.032;6.356;2024-02-28T10:14:28;7.40;99.90
10296;DHT22;5193;51.032;6.356;2024-02-28T10:16:55;7.40;99.90
10296;DHT22;5193;51.032;6.356;2024-02-28T10:19:23;7.50;99.90
10296;DHT22;5193;51.032;6.356;2024-02-28T10:21:50;7.60;99.90
10296;DHT22;5193;51.032;6.356;2024-02-28T10:24:16;7.70;99.90
10296;DHT22;5193;51.032;6.356;2024-02-28T10:26:43;7.80;99.90
10296;DHT22;5193;51.032;6.356;2024-02-28T10:29:09;7.90;99.90
10296;DHT22;5193;51.032;6.356;2024-02-28T10:31:35;8.10;99.90
10296;DHT22;5193;51.032;6.356;2024-02-28T10:34:02;8.20;99.90
10296;DHT22;5193;51.032;6.356;2024-02-28T10:36:32;8.20;99.90
10296;DHT22;5193;51.032;6.356;2024-02-28T10:38:58;8.30;99.90
10296;DHT22;5193;51.032;6.356;2024-02-28T10:41:26;8.40;99.90
10296;DHT22;5193;51.032;6.356;2024-02-28T10:43:53;8.50;99.90
10296;DHT22;5193;51.032;6.356;2024-02-28T10:46:48;8.60;99.90
10296;DHT22;5193;51.032;6.356;2024-02-28T10:49:14;8.60;99.90
10296;DHT22;5193;51.032;6.356;2024-02-28T10:51:40;8.70;99.90
10296;DHT22;5193;51.032;6.356;2024-02-28T10:54:11;8.70;99.90
10296;DHT22;5193;51.032;6.356;2024-02-28T10:56:39;8.70;99.90
10296;DHT22;5193;51.032;6.356;2024-02-28T10:59:07;8.80;99.90
10296;DHT22;5193;51.032;6.356;2024-02-28T11:01:41;8.90;99.90
10296;DHT22;5193;51.032;6.356;2024-02-28T11:04:13;9.00;99.90
10296;DHT22;5193;51.032;6.356;2024-02-28T11:06:50;9.00;99.90
10296;DHT22;5193;51.032;6.356;2024-02-28T11:09:19;9.10;99.90
10296;DHT22;5193;51.032;6.356;2024-02-28T11:11:51;9.20;99.90
10296;DHT22;5193;51.032;6.356;2024-02-28T11:14:17;9.30;99.90
10296;DHT22;5193;51.032;6.356;2024-02-28T11:16:46;9.40;99.90
10296;DHT22;5193;51.032;6.356;2024-02-28T11:19:21;9.50;99.90
10296;DHT22;5193;51.032;6.356;2024-02-28T11:21:54;9.60;99.90
10296;DHT22;5193;51.032;6.356;2024-02-28T11:24:30;9.70;99.90
10296;DHT22;5193;51.032;6.356;2024-02-28T11:26:57;9.80;99.90
10296;DHT22;5193;51.032;6.356;2024-02-28T11:29:26;9.90;99.90
10296;DHT22;5193;51.032;6.356;2024-02-28T11:31:56;10.00;99.90
10296;DHT22;5193;51.032;6.356;2024-02-28T11:34:25;10.10;99.90
10296;DHT22;5193;51.032;6.356;2024-02-28T11:36:54;10.20;99.90
10296;DHT22;5193;51.032;6.356;2024-02-28T11:39:22;10.30;99.90
10296;DHT22;5193;51.032;6.356;2024-02-28T11:41:50;10.50;99.90
10296;DHT22;5193;51.032;6.356;2024-02-28T11:44:16;10.50;99.90
10296;DHT22;5193;51.032;6.356;2024-02-28T11:46:49;10.60;99.90
10296;DHT22;5193;51.032;6.356;2024-02-28T11:49:15;10.70;99.90
10296;DHT22;5193;51.032;6.356;2024-02-28T11:51:42;10.80;99.90
10296;DHT22;5193;51.032;6.356;2024-02-28T11:54:08;10.90;99.90
10296;DHT22;5193;51.032;6.356;2024-02-28T11:56:37;11.00;99.90
10296;DHT22;5193;51.032;6.356;2024-02-28T11:59:03;11.00;99.90
10296;DHT22;5193;51.032;6.356;2024-02-28T12:01:43;11.10;99.90
10296;DHT22;5193;51.032;6.356;2024-02-28T12:04:12;11.20;99.90
10296;DHT22;5193;51.032;6.356;2024-02-28T12:06:38;11.30;99.90
10296;DHT22;5193;51.032;6.356;2024-02-28T12:09:08;11.40;99.90
10296;DHT22;5193;51.032;6.356;2024-02-28T12:11:40;11.50;99.90
10296;DHT22;5193;51.032;6.356;2024-02-28T12:14:07;11.60;99.90
10296;DHT22;5193;51.032;6.356;2024-02-28T12:16:37;11.60;99.90
10296;DHT22;5193;51.032;6.356;2024-02-28T12:19:08;11.70;99.90
10296;DHT22;5193;51.032;6.356;2024-02-28T12:21:34;11.70;99.90
10296;DHT22;5193;51.032;6.356;2024-02-28T12:24:03;11.70;99.90
10296;DHT22;5193;51.032;6.356;2024-02-28T12:26:39;11.80;99.90
10296;DHT22;5193;51.032;6.356;2024-02-28T12:29:04;11.80;99.90
10296;DHT22;5193;51.032;6.356;2024-02-28T12:31:30;11.90;99.90
10296;DHT22;5193;51.032;6.356;2024-02-28T12:33:56;11.90;99.90
10296;DHT22;5193;51.032;6.356;2024-02-28T12:36:22;12.10;99.90
10296;DHT22;5193;51.032;6.356;2024-02-28T12:38:50;12.10;99.90
10296;DHT22;5193;51.032;6.356;2024-02-28T12:41:16;12.20;99.90
10296;DHT22;5193;51.032;6.356;2024-02-28T12:43:45;12.20;99.90
10296;DHT22;5193;51.032;6.356;2024-02-28T12:46:10;12.30;99.90
10296;DHT22;5193;51.032;6.356;2024-02-28T12:48:41;12.40;99.90
10296;DHT22;5193;51.032;6.356;2024-02-28T12:51:09;12.30;99.90
10296;DHT22;5193;51.032;6.356;2024-02-28T12:53:40;12.40;99.90
10296;DHT22;5193;51.032;6.356;2024-02-28T12:56:05;12.50;99.90
10296;DHT22;5193;51.032;6.356;2024-02-28T12:58:31;12.50;99.90
10296;DHT22;5193;51.032;6.356;2024-02-28T13:00:57;12.70;99.90
10296;DHT22;5193;51.032;6.356;2024-02-28T13:03:23;12.80;99.90
10296;DHT22;5193;51.032;6.356;2024-02-28T13:05:52;12.90;99.90
10296;DHT22;5193;51.032;6.356;2024-02-28T13:08:18;12.90;99.90
10296;DHT22;5193;51.032;6.356;2024-02-28T13:10:51;13.00;99.90
10296;DHT22;5193;51.032;6.356;2024-02-28T13:13:17;12.90;99.90
10296;DHT22;5193;51.032;6.356;2024-02-28T13:15:42;12.90;99.90
10296;DHT22;5193;51.032;6.356;2024-02-28T13:18:10;12.80;99.90
10296;DHT22;5193;51.032;6.356;2024-02-28T13:20:39;12.70;99.90
10296;DHT22;5193;51.032;6.356;2024-02-28T13:23:07;12.60;99.90
10296;DHT22;5193;51.032;6.356;2024-02-28T13:25:33;12.60;99.90
10296;DHT22;5193;51.032;6.356;2024-02-28T13:28:02;12.60;99.90
10296;DHT22;5193;51.032;6.356;2024-02-28T13:30:28;12.60;99.90
10296;DHT22;5193;51.032;6.356;2024-02-28T13:32:59;12.70;99.90
10296;DHT22;5193;51.032;6.356;2024-02-28T13:35:25;12.60;99.90
10296;DHT22;5193;51.032;6.356;2024-02-28T13:37:50;12.60;99.90
10296;DHT22;5193;51.032;6.356;2024-02-28T13:40:16;12.80;99.90
10296;DHT22;5193;51.032;6.356;2024-02-28T13:42:41;12.90;99.90
10296;DHT22;5193;51.032;6.356;2024-02-28T13:45:07;13.00;99.90
10296;DHT22;5193;51.032;6.356;2024-02-28T13:47:36;13.00;99.90
10296;DHT22;5193;51.032;6.356;2024-02-28T13:50:02;13.10;99.90
10296;DHT22;5193;51.032;6.356;2024-02-28T13:52:29;13.10;99.90
10296;DHT22;5193;51.032;6.356;2024-02-28T13:54:54;13.10;99.90
10296;DHT22;5193;51.032;6.356;2024-02-28T13:57:20;13.10;99.90
10296;DHT22;5193;51.032;6.356;2024-02-28T13:59:45;13.00;99.90
10296;DHT22;5193;51.032;6.356;2024-02-28T14:02:17;13.00;99.90
10296;DHT22;5193;51.032;6.356;2024-02-28T14:04:44;13.00;99.90
10296;DHT22;5193;51.032;6.356;2024-02-28T14:07:16;13.00;99.90
10296;DHT22;5193;51.032;6.356;2024-02-28T14:09:42;12.90;99.90
10296;DHT22;5193;51.032;6.356;2024-02-28T14:12:12;12.90;99.90
10296;DHT22;5193;51.032;6.356;2024-02-28T14:14:38;12.80;99.90
10296;DHT22;5193;51.032;6.356;2024-02-28T14:17:05;12.80;99.90
10296;DHT22;5193;51.032;6.356;2024-02-28T14:19:31;12.80;99.90
10296;DHT22;5193;51.032;6.356;2024-02-28T14:21:56;12.80;99.90
10296;DHT22;5193;51.032;6.356;2024-02-28T14:24:22;13.00;99.90
10296;DHT22;5193;51.032;6.356;2024-02-28T14:26:48;13.00;99.90
10296;DHT22;5193;51.032;6.356;2024-02-28T14:29:14;13.10;99.90
10296;DHT22;5193;51.032;6.356;2024-02-28T14:31:40;13.10;99.90
10296;DHT22;5193;51.032;6.356;2024-02-28T14:34:07;13.10;99.90
10296;DHT22;5193;51.032;6.356;2024-02-28T14:36:33;13.10;99.90
10296;DHT22;5193;51.032;6.356;2024-02-28T14:38:59;13.10;99.90
10296;DHT22;5193;51.032;6.356;2024-02-28T14:41:24;13.20;99.90
10296;DHT22;5193;51.032;6.356;2024-02-28T14:43:55;13.20;99.90
10296;DHT22;5193;51.032;6.356;2024-02-28T14:46:20;13.20;99.90
10296;DHT22;5193;51.032;6.356;2024-02-28T14:48:48;13.10;99.90
10296;DHT22;5193;51.032;6.356;2024-02-28T14:51:20;13.10;99.90
10296;DHT22;5193;51.032;6.356;2024-02-28T14:53:46;13.10;99.90
10296;DHT22;5193;51.032;6.356;2024-02-28T14:56:14;13.20;99.90
10296;DHT22;5193;51.032;6.356;2024-02-28T14:58:44;13.20;99.90
10296;DHT22;5193;51.032;6.356;2024-02-28T15:01:10;13.20;99.90
10296;DHT22;5193;51.032;6.356;2024-02-28T15:03:35;13.30;99.90
10296;DHT22;5193;51.032;6.356;2024-02-28T15:06:02;13.20;99.90
10296;DHT22;5193;51.032;6.356;2024-02-28T15:08:27;13.20;99.90
10296;DHT22;5193;51.032;6.356;2024-02-28T15:10:53;13.20;99.90
10296;DHT22;5193;51.032;6.356;2024-02-28T15:13:22;13.10;99.90
10296;DHT22;5193;51.032;6.356;2024-02-28T15:15:49;13.00;99.90
10296;DHT22;5193;51.032;6.356;2024-02-28T15:18:14;12.90;99.90
10296;DHT22;5193;51.032;6.356;2024-02-28T15:20:40;12.90;99.90
10296;DHT22;5193;51.032;6.356;2024-02-28T15:23:06;12.80;99.90
10296;DHT22;5193;51.032;6.356;2024-02-28T15:25:35;12.80;99.90
10296;DHT22;5193;51.032;6.356;2024-02-28T15:28:01;12.90;99.90
10296;DHT22;5193;51.032;6.356;2024-02-28T15:30:27;12.90;99.90
10296;DHT22;5193;51.032;6.356;2024-02-28T15:32:53;12.90;99.90
10296;DHT22;5193;51.032;6.356;2024-02-28T15:35:18;12.90;99.90
10296;DHT22;5193;51.032;6.356;2024-02-28T15:37:46;12.90;99.90
10296;DHT22;5193;51.032;6.356;2024-02-28T15:40:14;12.90;99.90
10296;DHT22;5193;51.032;6.356;2024-02-28T15:42:41;12.90;99.90
10296;DHT22;5193;51.032;6.356;2024-02-28T15:45:07;12.90;99.90
10296;DHT22;5193;51.032;6.356;2024-02-28T15:47:33;12.90;99.90
10296;DHT22;5193;51.032;6.356;2024-02-28T15:49:58;12.90;99.90
10296;DHT22;5193;51.032;6.356;2024-02-28T15:52:24;12.90;99.90